x

South Moresby (46147) Wave Buoy

1:00am - Mon 21st Apr 2014 All times are PDT. -7 hours from GMT.

  • Sig Wave height 14.1ft
  • Peak Period 14s
  • Wind
    16mph, 20mph gusts
  • Sea Temp 46°f
  • Air Temp 46°f
  • Sea Pressure 1014.2mb
  • South Moresby
  • South Moresby

More Historic Weather Station data

Upgrade to MSW Pro to gain access to the past 30 days of data for over 8000 Wavebouys and Weather Stations around the globe.

Join Pro

Comparision Forecast

View Surf forecast
   
Mon 04/21 1:00am 14ft 14s 16 20 mph 1014.2mb 46f 46f
12:00am 14.5ft 8s 16 20 mph 1013.7mb 46f 45f
Sun 04/20 11:00pm 14.5ft 9s 13 16 mph 1013.3mb 46f 45f
10:00pm 15.5ft 13s 18 22 mph 1012.6mb 46f 46f
9:00pm 18ft 9s 18 22 mph 1011.6mb 46f 46f
8:00pm 18ft 9s 22
mph
1010.4mb 46f 46f
7:00pm 18.5ft 9s 29 36 mph 1009.2mb 46f 46f
6:00pm 19.5ft 14s 29 40 mph 1007.7mb 46f 46f
5:00pm 20.5ft 14s 36 45 mph 1005.6mb 46f 46f
4:00pm 19.5ft 14s 31 40 mph 1005.5mb 46f 48f
1:00pm 22.5ft 14s 25 31 mph 1006mb 46f 47f
12:00pm 23.5ft 14s 27 31 mph 1006mb 46f 47f
10:00am 21.5ft 14s 36 47 mph 1005.6mb 46f 47f
9:00am 20ft 13s 34 45 mph 1006.4mb 46f 47f
8:00am 23.5ft 14s 31 40 mph 1007mb 46f 47f
7:00am 21.5ft 14s 31 38 mph 1007.7mb 46f 47f
6:00am 20ft 15s 29 36 mph 1008.2mb 46f 47f
5:00am 21ft 14s 29 38 mph 1009mb 46f 47f
4:00am 22.5ft 16s 22 31 mph 1009.6mb 46f 47f
3:00am 23ft 15s 22 27 mph 1009.9mb 46f 47f
2:00am 24ft 15s 20 27 mph 1009.6mb 46f 47f
1:00am 24.5ft 17s 20 27 mph 1009.1mb 46f 47f
12:00am 27ft 18s 20 25 mph 1008.3mb 46f 47f
Sat 04/19 11:00pm 25.5ft 17s 13 22 mph 1007.4mb 46f 46f
10:00pm 26.5ft 16s 27 36 mph 1005.8mb 46f 47f
9:00pm 26ft 14s 25 36 mph 1004.2mb 46f 47f
8:00pm 23.5ft 17s 22 31 mph 1002.4mb 46f 46f
7:00pm 23.5ft 16s 27 34 mph 1000.7mb 46f 47f
6:00pm 23.5ft 10s 25 31 mph 999.2mb 46f 46f
5:00pm 18.5ft 12s 27 34 mph 997.2mb 46f 47f
4:00pm 17ft 10s 25 31 mph 995.5mb 46f 46f
3:00pm 17.5ft 11s 22 31 mph 993.9mb 46f 47f
2:00pm 18.5ft 12s 22 27 mph 992.4mb 46f 46f
1:00pm 22.5ft 12s 25 31 mph 991mb 46f 47f
12:00pm 22.5ft 11s 29 36 mph 990.5mb 46f 47f
11:00am 26.5ft 12s 31 38 mph 990.5mb 46f 47f
10:00am 23.5ft 12s 34 43 mph 990.3mb 46f 47f
9:00am 28ft 12s 40 51 mph 990mb 46f 47f
8:00am 29ft 11s 40 54 mph 990.6mb 46f 46f
7:00am 29ft 12s 40 51 mph 990.9mb 46f 46f
6:00am 27ft 12s 40 54 mph 991.3mb 46f 46f
5:00am 24.5ft 12s 40 51 mph 991.9mb 46f 46f
4:00am 23ft 10s 43 56 mph 992.5mb 46f 47f
3:00am 21ft 10s 43 54 mph 994mb 46f 47f
2:00am 17ft 10s 43 54 mph 995.7mb 46f 47f
1:00am 17ft 10s 38 47 mph 997mb 46f 47f
12:00am 14ft 9s 40 54 mph 998.4mb 46f 47f
Fri 04/18 11:00pm 14ft 8s 40 51 mph 999.6mb 46f 47f
10:00pm 13ft 7s 38 49 mph 1001.1mb 46f 46f
9:00pm 12ft 7s 36 47 mph 1002.7mb 46f 44f
8:00pm 9.5ft 6s 34 43 mph 1004.1mb 46f 45f
7:00pm 8.5ft 6s 29 36 mph 1005.6mb 46f 47f
6:00pm 8ft 11s 27 36 mph 1006.7mb 46f 47f
5:00pm 7ft 14s 25 29 mph 1008mb 46f 47f
4:00pm 7ft 9s 22 27 mph 1009.3mb 46f 47f
3:00pm 7ft 10s 20 25 mph 1010.1mb 46f 47f
2:00pm 7ft 10s 20 25 mph 1011mb 46f 46f
1:00pm 8ft 9s 18 22 mph 1011.5mb 46f 46f
12:00pm 7.5ft 10s 18 22 mph 1012.1mb 46f 45f
11:00am 9ft 10s 18 20 mph 1012.3mb 46f 45f
10:00am 9.5ft 9s 13 18 mph 1012.4mb 46f 45f
9:00am 9.5ft 14s 11 13 mph 1012.6mb 46f 45f
8:00am 9ft 10s 9 11 mph 1012.6mb 46f 45f
7:00am 9ft 10s 9 13 mph 1012.4mb 46f 45f
6:00am 9ft 10s 9 11 mph 1012.3mb 46f 44f
5:00am 9ft 10s 7 9 mph 1012.1mb 46f 44f
4:00am 9.5ft 10s 9
mph
1011.8mb 46f 44f
3:00am 10ft 11s 4 9 mph 1011.6mb 46f 44f
2:00am 10ft 11s 7 9 mph 1011.6mb 46f 44f
1:00am 10.5ft 11s 9 13 mph 1011.2mb 46f 44f
12:00am 11ft 11s 13 18 mph 1010.8mb 46f 44f
Thu 04/17 11:00pm 11.5ft 11s 13 18 mph 1010.6mb 46f 45f
10:00pm 11ft 10s 13 16 mph 1010.3mb 46f 46f
9:00pm 11ft 10s 13 18 mph 1010mb 46f 46f
8:00pm 12ft 11s 13 16 mph 1009.4mb 46f 46f
7:00pm 11ft 11s 16 20 mph 1009.1mb 46f 46f
6:00pm 11.5ft 10s 18 22 mph 1008.5mb 46f 46f
5:00pm 11ft 11s 18 22 mph 1008.1mb 46f 46f
4:00pm 12ft 9s 20 27 mph 1007.7mb 46f 46f
3:00pm 11.5ft 10s 20 27 mph 1007mb 46f 46f
2:00pm 10.5ft 8s 20 27 mph 1006.5mb 46f 45f
1:00pm 11ft 11s 20 22 mph 1005.5mb 46f 46f
12:00pm 11ft 11s 18 25 mph 1004.6mb 46f 46f
11:00am 11ft 11s 20 27 mph 1003.8mb 46f 44f
10:00am 9.5ft 12s 20 25 mph 1002.9mb 46f 46f